sensor_id;sensor_type;location;lat;lon;timestamp;temperature;humidity
46217;DHT22;47258;59.424;13.482;2022-11-18T00:01:46;1.70;99.90
46217;DHT22;47258;59.424;13.482;2022-11-18T00:04:13;1.70;99.90
46217;DHT22;47258;59.424;13.482;2022-11-18T00:06:40;1.60;99.90
46217;DHT22;47258;59.424;13.482;2022-11-18T00:09:07;1.60;99.90
46217;DHT22;47258;59.424;13.482;2022-11-18T00:11:34;1.60;99.90
46217;DHT22;47258;59.424;13.482;2022-11-18T00:14:21;1.60;99.90
46217;DHT22;47258;59.424;13.482;2022-11-18T00:16:51;1.60;99.90
46217;DHT22;47258;59.424;13.482;2022-11-18T00:19:19;1.60;99.90
46217;DHT22;47258;59.424;13.482;2022-11-18T00:21:46;1.60;99.90
46217;DHT22;47258;59.424;13.482;2022-11-18T00:24:13;1.60;99.90
46217;DHT22;47258;59.424;13.482;2022-11-18T00:26:40;1.50;99.90
46217;DHT22;47258;59.424;13.482;2022-11-18T00:29:08;1.50;99.90
46217;DHT22;47258;59.424;13.482;2022-11-18T00:31:36;1.50;99.90
46217;DHT22;47258;59.424;13.482;2022-11-18T00:34:04;1.40;99.90
46217;DHT22;47258;59.424;13.482;2022-11-18T00:36:31;1.40;99.90
46217;DHT22;47258;59.424;13.482;2022-11-18T00:38:58;1.40;99.90
46217;DHT22;47258;59.424;13.482;2022-11-18T00:41:25;1.40;99.90
46217;DHT22;47258;59.424;13.482;2022-11-18T00:44:13;1.30;99.90
46217;DHT22;47258;59.424;13.482;2022-11-18T00:46:40;1.30;99.90
46217;DHT22;47258;59.424;13.482;2022-11-18T00:49:07;1.30;99.90
46217;DHT22;47258;59.424;13.482;2022-11-18T00:51:34;1.30;99.90
46217;DHT22;47258;59.424;13.482;2022-11-18T00:54:02;1.20;99.90
46217;DHT22;47258;59.424;13.482;2022-11-18T00:56:29;1.20;99.90
46217;DHT22;47258;59.424;13.482;2022-11-18T00:58:56;1.10;99.90
46217;DHT22;47258;59.424;13.482;2022-11-18T01:01:23;1.10;99.90
46217;DHT22;47258;59.424;13.482;2022-11-18T01:03:51;1.10;99.90
46217;DHT22;47258;59.424;13.482;2022-11-18T01:06:18;1.10;99.90
46217;DHT22;47258;59.424;13.482;2022-11-18T01:08:45;1.00;99.90
46217;DHT22;47258;59.424;13.482;2022-11-18T01:11:12;1.00;99.90
46217;DHT22;47258;59.424;13.482;2022-11-18T01:13:56;1.00;99.90
46217;DHT22;47258;59.424;13.482;2022-11-18T01:16:25;0.90;99.90
46217;DHT22;47258;59.424;13.482;2022-11-18T01:18:55;0.90;99.90
46217;DHT22;47258;59.424;13.482;2022-11-18T01:21:22;0.90;99.90
46217;DHT22;47258;59.424;13.482;2022-11-18T01:23:49;0.80;99.90
46217;DHT22;47258;59.424;13.482;2022-11-18T01:26:17;0.80;99.90
46217;DHT22;47258;59.424;13.482;2022-11-18T01:28:44;0.80;99.90
46217;DHT22;47258;59.424;13.482;2022-11-18T01:31:12;0.80;99.90
46217;DHT22;47258;59.424;13.482;2022-11-18T01:33:39;0.80;99.90
46217;DHT22;47258;59.424;13.482;2022-11-18T01:36:16;0.80;99.90
46217;DHT22;47258;59.424;13.482;2022-11-18T01:38:43;0.80;99.90
46217;DHT22;47258;59.424;13.482;2022-11-18T01:41:10;0.70;99.90
46217;DHT22;47258;59.424;13.482;2022-11-18T01:43:49;0.70;99.90
46217;DHT22;47258;59.424;13.482;2022-11-18T01:46:16;0.70;99.90
46217;DHT22;47258;59.424;13.482;2022-11-18T01:48:44;0.70;99.90
46217;DHT22;47258;59.424;13.482;2022-11-18T01:51:15;0.70;99.90
46217;DHT22;47258;59.424;13.482;2022-11-18T01:53:46;0.70;99.90
46217;DHT22;47258;59.424;13.482;2022-11-18T01:56:16;0.60;99.90
46217;DHT22;47258;59.424;13.482;2022-11-18T01:58:47;0.60;99.90
46217;DHT22;47258;59.424;13.482;2022-11-18T02:01:18;0.60;99.90
46217;DHT22;47258;59.424;13.482;2022-11-18T02:03:45;0.50;99.90
46217;DHT22;47258;59.424;13.482;2022-11-18T02:06:15;0.50;99.90
46217;DHT22;47258;59.424;13.482;2022-11-18T02:08:43;0.50;99.90
46217;DHT22;47258;59.424;13.482;2022-11-18T02:11:12;0.50;99.90
46217;DHT22;47258;59.424;13.482;2022-11-18T02:14:01;0.50;99.90
46217;DHT22;47258;59.424;13.482;2022-11-18T02:16:36;0.50;99.90
46217;DHT22;47258;59.424;13.482;2022-11-18T02:19:13;0.50;99.90
46217;DHT22;47258;59.424;13.482;2022-11-18T02:21:48;0.50;99.90
46217;DHT22;47258;59.424;13.482;2022-11-18T02:24:27;0.40;99.90
46217;DHT22;47258;59.424;13.482;2022-11-18T02:30:04;0.40;99.90
46217;DHT22;47258;59.424;13.482;2022-11-18T02:32:37;0.40;99.90
46217;DHT22;47258;59.424;13.482;2022-11-18T02:35:11;0.40;99.90
46217;DHT22;47258;59.424;13.482;2022-11-18T02:37:44;0.40;99.90
46217;DHT22;47258;59.424;13.482;2022-11-18T02:40:14;0.40;99.90
46217;DHT22;47258;59.424;13.482;2022-11-18T02:42:44;0.40;99.90
46217;DHT22;47258;59.424;13.482;2022-11-18T02:45:16;0.40;99.90
46217;DHT22;47258;59.424;13.482;2022-11-18T02:47:46;0.30;99.90
46217;DHT22;47258;59.424;13.482;2022-11-18T02:50:17;0.30;99.90
46217;DHT22;47258;59.424;13.482;2022-11-18T02:52:45;0.30;99.90
46217;DHT22;47258;59.424;13.482;2022-11-18T02:55:14;0.30;99.90
46217;DHT22;47258;59.424;13.482;2022-11-18T02:57:44;0.30;99.90
46217;DHT22;47258;59.424;13.482;2022-11-18T03:00:15;0.30;99.90
46217;DHT22;47258;59.424;13.482;2022-11-18T03:02:44;0.30;99.90
46217;DHT22;47258;59.424;13.482;2022-11-18T03:05:15;0.30;99.90
46217;DHT22;47258;59.424;13.482;2022-11-18T03:07:47;0.30;99.90
46217;DHT22;47258;59.424;13.482;2022-11-18T03:10:19;0.30;99.90
46217;DHT22;47258;59.424;13.482;2022-11-18T03:12:55;0.20;99.90
46217;DHT22;47258;59.424;13.482;2022-11-18T03:15:34;0.30;99.90
46217;DHT22;47258;59.424;13.482;2022-11-18T03:18:11;0.30;99.90
46217;DHT22;47258;59.424;13.482;2022-11-18T03:20:47;0.30;99.90
46217;DHT22;47258;59.424;13.482;2022-11-18T03:23:21;0.30;99.90
46217;DHT22;47258;59.424;13.482;2022-11-18T03:25:54;0.30;99.90
46217;DHT22;47258;59.424;13.482;2022-11-18T03:28:25;0.30;99.90
46217;DHT22;47258;59.424;13.482;2022-11-18T03:30:58;0.40;99.90
46217;DHT22;47258;59.424;13.482;2022-11-18T03:33:32;0.50;99.90
46217;DHT22;47258;59.424;13.482;2022-11-18T03:36:03;0.50;99.90
46217;DHT22;47258;59.424;13.482;2022-11-18T03:38:35;0.60;99.90
46217;DHT22;47258;59.424;13.482;2022-11-18T03:41:07;0.60;99.90
46217;DHT22;47258;59.424;13.482;2022-11-18T03:43:37;0.60;99.90
46217;DHT22;47258;59.424;13.482;2022-11-18T03:46:10;0.70;99.90
46217;DHT22;47258;59.424;13.482;2022-11-18T03:48:43;0.70;99.90
46217;DHT22;47258;59.424;13.482;2022-11-18T03:51:14;0.70;99.90
46217;DHT22;47258;59.424;13.482;2022-11-18T03:53:48;0.80;99.90
46217;DHT22;47258;59.424;13.482;2022-11-18T03:56:20;0.80;99.90
46217;DHT22;47258;59.424;13.482;2022-11-18T03:58:52;0.80;99.90
46217;DHT22;47258;59.424;13.482;2022-11-18T04:01:30;0.80;99.90
46217;DHT22;47258;59.424;13.482;2022-11-18T04:03:59;0.80;99.90
46217;DHT22;47258;59.424;13.482;2022-11-18T04:06:31;0.80;99.90
46217;DHT22;47258;59.424;13.482;2022-11-18T04:09:07;0.80;99.90
46217;DHT22;47258;59.424;13.482;2022-11-18T04:11:40;0.90;99.90
46217;DHT22;47258;59.424;13.482;2022-11-18T04:14:25;0.90;99.90
46217;DHT22;47258;59.424;13.482;2022-11-18T04:16:54;0.90;99.90
46217;DHT22;47258;59.424;13.482;2022-11-18T04:19:20;0.90;99.90
46217;DHT22;47258;59.424;13.482;2022-11-18T04:21:48;0.90;99.90
46217;DHT22;47258;59.424;13.482;2022-11-18T04:24:15;0.90;99.90
46217;DHT22;47258;59.424;13.482;2022-11-18T04:26:42;0.90;99.90
46217;DHT22;47258;59.424;13.482;2022-11-18T04:29:09;0.90;99.90
46217;DHT22;47258;59.424;13.482;2022-11-18T04:31:36;0.90;99.90
46217;DHT22;47258;59.424;13.482;2022-11-18T04:34:04;1.00;99.90
46217;DHT22;47258;59.424;13.482;2022-11-18T04:36:31;1.00;99.90
46217;DHT22;47258;59.424;13.482;2022-11-18T04:38:58;1.00;99.90
46217;DHT22;47258;59.424;13.482;2022-11-18T04:41:25;1.00;99.90
46217;DHT22;47258;59.424;13.482;2022-11-18T04:44:06;1.10;99.90
46217;DHT22;47258;59.424;13.482;2022-11-18T04:46:38;1.10;99.90
46217;DHT22;47258;59.424;13.482;2022-11-18T04:49:06;1.10;99.90
46217;DHT22;47258;59.424;13.482;2022-11-18T04:51:33;1.10;99.90
46217;DHT22;47258;59.424;13.482;2022-11-18T04:54:01;1.20;99.90
46217;DHT22;47258;59.424;13.482;2022-11-18T04:56:28;1.20;99.90
46217;DHT22;47258;59.424;13.482;2022-11-18T04:58:55;1.20;99.90
46217;DHT22;47258;59.424;13.482;2022-11-18T05:01:23;1.30;99.90
46217;DHT22;47258;59.424;13.482;2022-11-18T05:03:50;1.30;99.90
46217;DHT22;47258;59.424;13.482;2022-11-18T05:06:19;1.30;99.90
46217;DHT22;47258;59.424;13.482;2022-11-18T05:08:46;1.30;99.90
46217;DHT22;47258;59.424;13.482;2022-11-18T05:11:13;1.40;99.90
46217;DHT22;47258;59.424;13.482;2022-11-18T05:13:57;1.40;99.90
46217;DHT22;47258;59.424;13.482;2022-11-18T05:16:24;1.40;99.90
46217;DHT22;47258;59.424;13.482;2022-11-18T05:18:51;1.40;99.90
46217;DHT22;47258;59.424;13.482;2022-11-18T05:21:19;1.40;99.90
46217;DHT22;47258;59.424;13.482;2022-11-18T05:23:46;1.40;99.90
46217;DHT22;47258;59.424;13.482;2022-11-18T05:26:13;1.40;99.90
46217;DHT22;47258;59.424;13.482;2022-11-18T05:28:40;1.40;99.90
46217;DHT22;47258;59.424;13.482;2022-11-18T05:31:07;1.40;99.90
46217;DHT22;47258;59.424;13.482;2022-11-18T05:33:34;1.50;99.90
46217;DHT22;47258;59.424;13.482;2022-11-18T05:36:03;1.50;99.90
46217;DHT22;47258;59.424;13.482;2022-11-18T05:38:32;1.50;99.90
46217;DHT22;47258;59.424;13.482;2022-11-18T05:40:59;1.50;99.90
46217;DHT22;47258;59.424;13.482;2022-11-18T05:43:27;1.50;99.90
46217;DHT22;47258;59.424;13.482;2022-11-18T05:45:53;1.50;99.90
46217;DHT22;47258;59.424;13.482;2022-11-18T05:48:20;1.40;99.90
46217;DHT22;47258;59.424;13.482;2022-11-18T05:50:48;1.50;99.90
46217;DHT22;47258;59.424;13.482;2022-11-18T05:53:17;1.50;99.90
46217;DHT22;47258;59.424;13.482;2022-11-18T05:55:50;1.50;99.90
46217;DHT22;47258;59.424;13.482;2022-11-18T05:58:19;1.50;99.90
46217;DHT22;47258;59.424;13.482;2022-11-18T06:00:48;1.50;99.90
46217;DHT22;47258;59.424;13.482;2022-11-18T06:03:19;1.50;99.90
46217;DHT22;47258;59.424;13.482;2022-11-18T06:05:47;1.60;99.90
46217;DHT22;47258;59.424;13.482;2022-11-18T06:08:16;1.60;99.90
46217;DHT22;47258;59.424;13.482;2022-11-18T06:10:46;1.60;99.90
46217;DHT22;47258;59.424;13.482;2022-11-18T06:13:18;1.60;99.90
46217;DHT22;47258;59.424;13.482;2022-11-18T06:15:47;1.70;99.90
46217;DHT22;47258;59.424;13.482;2022-11-18T06:18:18;1.70;99.90
46217;DHT22;47258;59.424;13.482;2022-11-18T06:20:48;1.70;99.90
46217;DHT22;47258;59.424;13.482;2022-11-18T06:23:16;1.70;99.90
46217;DHT22;47258;59.424;13.482;2022-11-18T06:25:43;1.70;99.90
46217;DHT22;47258;59.424;13.482;2022-11-18T06:28:13;1.70;99.90
46217;DHT22;47258;59.424;13.482;2022-11-18T06:30:40;1.70;99.90
46217;DHT22;47258;59.424;13.482;2022-11-18T06:33:07;1.70;99.90
46217;DHT22;47258;59.424;13.482;2022-11-18T06:35:34;1.70;99.90
46217;DHT22;47258;59.424;13.482;2022-11-18T06:38:01;1.70;99.90
46217;DHT22;47258;59.424;13.482;2022-11-18T06:40:29;1.70;99.90
46217;DHT22;47258;59.424;13.482;2022-11-18T06:42:56;1.70;99.90
46217;DHT22;47258;59.424;13.482;2022-11-18T06:45:42;1.70;99.90
46217;DHT22;47258;59.424;13.482;2022-11-18T06:48:30;1.70;99.90
46217;DHT22;47258;59.424;13.482;2022-11-18T06:50:57;1.80;99.90
46217;DHT22;47258;59.424;13.482;2022-11-18T06:53:24;1.80;99.90
46217;DHT22;47258;59.424;13.482;2022-11-18T06:55:51;1.80;99.90
46217;DHT22;47258;59.424;13.482;2022-11-18T06:58:18;1.80;99.90
46217;DHT22;47258;59.424;13.482;2022-11-18T07:00:46;1.80;99.90
46217;DHT22;47258;59.424;13.482;2022-11-18T07:03:13;1.70;99.90
46217;DHT22;47258;59.424;13.482;2022-11-18T07:05:40;1.70;99.90
46217;DHT22;47258;59.424;13.482;2022-11-18T07:08:07;1.70;99.90
46217;DHT22;47258;59.424;13.482;2022-11-18T07:10:34;1.80;99.90
46217;DHT22;47258;59.424;13.482;2022-11-18T07:13:01;1.80;99.90
46217;DHT22;47258;59.424;13.482;2022-11-18T07:15:27;1.80;99.90
46217;DHT22;47258;59.424;13.482;2022-11-18T07:17:56;1.80;99.90
46217;DHT22;47258;59.424;13.482;2022-11-18T07:20:23;1.80;99.90
46217;DHT22;47258;59.424;13.482;2022-11-18T07:22:51;1.80;99.90
46217;DHT22;47258;59.424;13.482;2022-11-18T07:25:18;1.90;99.90
46217;DHT22;47258;59.424;13.482;2022-11-18T07:27:45;1.90;99.90
46217;DHT22;47258;59.424;13.482;2022-11-18T07:30:13;1.90;99.90
46217;DHT22;47258;59.424;13.482;2022-11-18T07:32:39;1.90;99.90
46217;DHT22;47258;59.424;13.482;2022-11-18T07:35:08;1.90;99.90
46217;DHT22;47258;59.424;13.482;2022-11-18T07:37:35;1.90;99.90
46217;DHT22;47258;59.424;13.482;2022-11-18T07:40:03;1.90;99.90
46217;DHT22;47258;59.424;13.482;2022-11-18T07:42:30;1.90;99.90
46217;DHT22;47258;59.424;13.482;2022-11-18T07:45:08;1.90;99.90
46217;DHT22;47258;59.424;13.482;2022-11-18T07:47:35;1.90;99.90
46217;DHT22;47258;59.424;13.482;2022-11-18T07:50:03;1.90;99.90
46217;DHT22;47258;59.424;13.482;2022-11-18T07:52:32;2.00;99.90
46217;DHT22;47258;59.424;13.482;2022-11-18T07:54:59;2.00;99.90
46217;DHT22;47258;59.424;13.482;2022-11-18T07:57:26;2.00;99.90
46217;DHT22;47258;59.424;13.482;2022-11-18T07:59:53;2.00;99.90
46217;DHT22;47258;59.424;13.482;2022-11-18T08:02:19;2.00;99.90
46217;DHT22;47258;59.424;13.482;2022-11-18T08:04:46;2.00;99.90
46217;DHT22;47258;59.424;13.482;2022-11-18T08:07:13;2.00;99.90
46217;DHT22;47258;59.424;13.482;2022-11-18T08:09:43;2.00;99.90
46217;DHT22;47258;59.424;13.482;2022-11-18T08:12:10;2.00;99.90
46217;DHT22;47258;59.424;13.482;2022-11-18T08:14:36;2.00;99.90
46217;DHT22;47258;59.424;13.482;2022-11-18T08:17:03;2.00;99.90
46217;DHT22;47258;59.424;13.482;2022-11-18T08:19:33;2.00;99.90
46217;DHT22;47258;59.424;13.482;2022-11-18T08:22:00;2.00;99.90
46217;DHT22;47258;59.424;13.482;2022-11-18T08:24:26;2.00;99.90
46217;DHT22;47258;59.424;13.482;2022-11-18T08:26:55;2.10;99.90
46217;DHT22;47258;59.424;13.482;2022-11-18T08:29:22;2.10;99.90
46217;DHT22;47258;59.424;13.482;2022-11-18T08:31:49;2.10;99.90
46217;DHT22;47258;59.424;13.482;2022-11-18T08:34:16;2.10;99.90
46217;DHT22;47258;59.424;13.482;2022-11-18T08:36:42;2.10;99.90
46217;DHT22;47258;59.424;13.482;2022-11-18T08:39:10;2.20;99.90
46217;DHT22;47258;59.424;13.482;2022-11-18T08:41:39;2.20;99.90
46217;DHT22;47258;59.424;13.482;2022-11-18T08:44:10;2.20;99.90
46217;DHT22;47258;59.424;13.482;2022-11-18T08:46:37;2.20;99.90
46217;DHT22;47258;59.424;13.482;2022-11-18T08:49:04;2.20;99.90
46217;DHT22;47258;59.424;13.482;2022-11-18T08:51:31;2.30;99.90
46217;DHT22;47258;59.424;13.482;2022-11-18T08:53:58;2.30;99.90
46217;DHT22;47258;59.424;13.482;2022-11-18T08:56:25;2.30;99.90
46217;DHT22;47258;59.424;13.482;2022-11-18T08:58:52;2.30;99.90
46217;DHT22;47258;59.424;13.482;2022-11-18T09:01:21;2.30;99.90
46217;DHT22;47258;59.424;13.482;2022-11-18T09:03:48;2.30;99.90
46217;DHT22;47258;59.424;13.482;2022-11-18T09:06:17;2.30;99.90
46217;DHT22;47258;59.424;13.482;2022-11-18T09:08:45;2.30;99.90
46217;DHT22;47258;59.424;13.482;2022-11-18T09:11:13;2.30;99.90
46217;DHT22;47258;59.424;13.482;2022-11-18T09:13:41;2.40;99.90
46217;DHT22;47258;59.424;13.482;2022-11-18T09:16:08;2.40;99.90
46217;DHT22;47258;59.424;13.482;2022-11-18T09:18:36;2.40;99.90
46217;DHT22;47258;59.424;13.482;2022-11-18T09:21:06;2.40;99.90
46217;DHT22;47258;59.424;13.482;2022-11-18T09:23:35;2.40;99.90
46217;DHT22;47258;59.424;13.482;2022-11-18T09:26:04;2.50;99.90
46217;DHT22;47258;59.424;13.482;2022-11-18T09:28:32;2.50;99.90
46217;DHT22;47258;59.424;13.482;2022-11-18T09:31:02;2.50;99.90
46217;DHT22;47258;59.424;13.482;2022-11-18T09:33:29;2.50;99.90
46217;DHT22;47258;59.424;13.482;2022-11-18T09:35:58;2.50;99.90
46217;DHT22;47258;59.424;13.482;2022-11-18T09:38:25;2.50;99.90
46217;DHT22;47258;59.424;13.482;2022-11-18T09:40:58;2.50;99.90
46217;DHT22;47258;59.424;13.482;2022-11-18T09:43:37;2.50;99.90
46217;DHT22;47258;59.424;13.482;2022-11-18T09:46:24;2.50;99.90
46217;DHT22;47258;59.424;13.482;2022-11-18T09:48:56;2.60;99.90
46217;DHT22;47258;59.424;13.482;2022-11-18T09:51:44;2.60;99.90
46217;DHT22;47258;59.424;13.482;2022-11-18T09:54:18;2.60;99.90
46217;DHT22;47258;59.424;13.482;2022-11-18T09:56:46;2.70;99.90
46217;DHT22;47258;59.424;13.482;2022-11-18T09:59:17;2.70;99.90
46217;DHT22;47258;59.424;13.482;2022-11-18T10:01:44;2.60;99.90
46217;DHT22;47258;59.424;13.482;2022-11-18T10:04:13;2.70;99.90
46217;DHT22;47258;59.424;13.482;2022-11-18T10:06:42;2.70;99.90
46217;DHT22;47258;59.424;13.482;2022-11-18T10:09:19;2.70;99.90
46217;DHT22;47258;59.424;13.482;2022-11-18T10:12:01;2.70;99.90
46217;DHT22;47258;59.424;13.482;2022-11-18T10:14:42;2.70;99.90
46217;DHT22;47258;59.424;13.482;2022-11-18T10:17:24;2.70;99.90
46217;DHT22;47258;59.424;13.482;2022-11-18T10:20:02;2.70;99.90
46217;DHT22;47258;59.424;13.482;2022-11-18T10:22:41;2.70;99.90
46217;DHT22;47258;59.424;13.482;2022-11-18T10:25:12;2.70;99.90
46217;DHT22;47258;59.424;13.482;2022-11-18T10:27:40;2.70;99.90
46217;DHT22;47258;59.424;13.482;2022-11-18T10:30:11;2.70;99.90
46217;DHT22;47258;59.424;13.482;2022-11-18T10:32:53;2.80;99.90
46217;DHT22;47258;59.424;13.482;2022-11-18T10:35:25;2.80;99.90
46217;DHT22;47258;59.424;13.482;2022-11-18T10:38:05;2.80;99.90
46217;DHT22;47258;59.424;13.482;2022-11-18T10:40:33;2.80;99.90
46217;DHT22;47258;59.424;13.482;2022-11-18T10:43:03;2.90;99.90
46217;DHT22;47258;59.424;13.482;2022-11-18T10:45:31;2.90;99.90
46217;DHT22;47258;59.424;13.482;2022-11-18T10:48:08;2.90;99.90
46217;DHT22;47258;59.424;13.482;2022-11-18T10:50:37;3.00;99.90
46217;DHT22;47258;59.424;13.482;2022-11-18T10:53:29;2.90;99.90
46217;DHT22;47258;59.424;13.482;2022-11-18T10:55:58;3.00;99.90
46217;DHT22;47258;59.424;13.482;2022-11-18T10:58:27;3.00;99.90
46217;DHT22;47258;59.424;13.482;2022-11-18T11:01:04;3.00;99.90
46217;DHT22;47258;59.424;13.482;2022-11-18T11:03:33;3.00;99.90
46217;DHT22;47258;59.424;13.482;2022-11-18T11:06:34;3.10;99.90
46217;DHT22;47258;59.424;13.482;2022-11-18T11:09:09;3.10;99.90
46217;DHT22;47258;59.424;13.482;2022-11-18T11:11:37;3.10;99.90
46217;DHT22;47258;59.424;13.482;2022-11-18T11:14:31;3.20;99.90
46217;DHT22;47258;59.424;13.482;2022-11-18T11:17:05;3.20;99.90
46217;DHT22;47258;59.424;13.482;2022-11-18T11:19:39;3.20;99.90
46217;DHT22;47258;59.424;13.482;2022-11-18T11:22:09;3.20;99.90
46217;DHT22;47258;59.424;13.482;2022-11-18T11:24:38;3.20;99.90
46217;DHT22;47258;59.424;13.482;2022-11-18T11:30:14;3.20;99.90
46217;DHT22;47258;59.424;13.482;2022-11-18T11:33:17;3.20;99.90
46217;DHT22;47258;59.424;13.482;2022-11-18T11:36:07;3.20;99.90
46217;DHT22;47258;59.424;13.482;2022-11-18T11:38:46;3.20;99.90
46217;DHT22;47258;59.424;13.482;2022-11-18T11:41:21;3.20;99.90
46217;DHT22;47258;59.424;13.482;2022-11-18T11:43:59;3.10;99.90
46217;DHT22;47258;59.424;13.482;2022-11-18T11:46:36;3.20;99.90
46217;DHT22;47258;59.424;13.482;2022-11-18T11:49:15;3.20;99.90
46217;DHT22;47258;59.424;13.482;2022-11-18T11:51:48;3.20;99.90
46217;DHT22;47258;59.424;13.482;2022-11-18T11:54:48;3.20;99.90
46217;DHT22;47258;59.424;13.482;2022-11-18T11:57:29;3.20;99.90
46217;DHT22;47258;59.424;13.482;2022-11-18T12:00:01;3.20;99.90
46217;DHT22;47258;59.424;13.482;2022-11-18T12:02:41;3.20;99.90
46217;DHT22;47258;59.424;13.482;2022-11-18T12:05:19;3.20;99.90
46217;DHT22;47258;59.424;13.482;2022-11-18T12:07:51;3.30;99.90
46217;DHT22;47258;59.424;13.482;2022-11-18T12:10:29;3.30;99.90
46217;DHT22;47258;59.424;13.482;2022-11-18T12:13:11;3.30;99.90
46217;DHT22;47258;59.424;13.482;2022-11-18T12:15:50;3.30;99.90
46217;DHT22;47258;59.424;13.482;2022-11-18T12:18:25;3.40;99.90
46217;DHT22;47258;59.424;13.482;2022-11-18T12:20:55;3.40;99.90
46217;DHT22;47258;59.424;13.482;2022-11-18T12:23:23;3.30;99.90
46217;DHT22;47258;59.424;13.482;2022-11-18T12:25:56;3.30;99.90
46217;DHT22;47258;59.424;13.482;2022-11-18T12:28:30;3.30;99.90
46217;DHT22;47258;59.424;13.482;2022-11-18T12:31:32;3.30;99.90
46217;DHT22;47258;59.424;13.482;2022-11-18T12:34:18;3.30;99.90
46217;DHT22;47258;59.424;13.482;2022-11-18T12:36:53;3.30;99.90
46217;DHT22;47258;59.424;13.482;2022-11-18T12:39:47;3.40;99.90
46217;DHT22;47258;59.424;13.482;2022-11-18T12:42:39;3.40;99.90
46217;DHT22;47258;59.424;13.482;2022-11-18T12:45:51;3.40;99.90
46217;DHT22;47258;59.424;13.482;2022-11-18T12:48:38;3.30;99.90
46217;DHT22;47258;59.424;13.482;2022-11-18T12:54:31;3.30;99.90
46217;DHT22;47258;59.424;13.482;2022-11-18T12:57:00;3.30;99.90
46217;DHT22;47258;59.424;13.482;2022-11-18T12:59:30;3.30;99.90
46217;DHT22;47258;59.424;13.482;2022-11-18T13:02:20;3.20;99.90
46217;DHT22;47258;59.424;13.482;2022-11-18T13:05:09;3.30;99.90
46217;DHT22;47258;59.424;13.482;2022-11-18T13:07:40;3.30;99.90
46217;DHT22;47258;59.424;13.482;2022-11-18T13:10:29;3.20;99.90
46217;DHT22;47258;59.424;13.482;2022-11-18T13:12:57;3.20;99.90
46217;DHT22;47258;59.424;13.482;2022-11-18T13:15:24;3.20;99.90
46217;DHT22;47258;59.424;13.482;2022-11-18T13:18:14;3.30;99.90
46217;DHT22;47258;59.424;13.482;2022-11-18T13:20:41;3.20;99.90
46217;DHT22;47258;59.424;13.482;2022-11-18T13:23:27;3.20;99.90
46217;DHT22;47258;59.424;13.482;2022-11-18T13:26:17;3.20;99.90
46217;DHT22;47258;59.424;13.482;2022-11-18T13:31:46;3.20;99.90
46217;DHT22;47258;59.424;13.482;2022-11-18T13:34:19;3.20;99.90
46217;DHT22;47258;59.424;13.482;2022-11-18T13:36:48;3.10;99.90
46217;DHT22;47258;59.424;13.482;2022-11-18T13:39:20;3.20;99.90
46217;DHT22;47258;59.424;13.482;2022-11-18T13:42:00;3.20;99.90
46217;DHT22;47258;59.424;13.482;2022-11-18T13:44:29;3.20;99.90
46217;DHT22;47258;59.424;13.482;2022-11-18T13:47:03;3.20;99.90
46217;DHT22;47258;59.424;13.482;2022-11-18T13:49:42;3.20;99.90
46217;DHT22;47258;59.424;13.482;2022-11-18T13:52:13;3.10;99.90
46217;DHT22;47258;59.424;13.482;2022-11-18T13:54:42;3.10;99.90
46217;DHT22;47258;59.424;13.482;2022-11-18T13:57:16;3.10;99.90
46217;DHT22;47258;59.424;13.482;2022-11-18T13:59:45;3.10;99.90
46217;DHT22;47258;59.424;13.482;2022-11-18T14:02:13;3.10;99.90
46217;DHT22;47258;59.424;13.482;2022-11-18T14:04:50;3.20;99.90
46217;DHT22;47258;59.424;13.482;2022-11-18T14:07:30;3.20;99.90
46217;DHT22;47258;59.424;13.482;2022-11-18T14:09:58;3.20;99.90
46217;DHT22;47258;59.424;13.482;2022-11-18T14:12:27;3.20;99.90
46217;DHT22;47258;59.424;13.482;2022-11-18T14:15:19;3.20;99.90
46217;DHT22;47258;59.424;13.482;2022-11-18T14:17:54;3.20;99.90
46217;DHT22;47258;59.424;13.482;2022-11-18T14:20:24;3.20;99.90
46217;DHT22;47258;59.424;13.482;2022-11-18T14:22:54;3.20;99.90
46217;DHT22;47258;59.424;13.482;2022-11-18T14:25:22;3.20;99.90
46217;DHT22;47258;59.424;13.482;2022-11-18T14:27:50;3.10;99.90
46217;DHT22;47258;59.424;13.482;2022-11-18T14:30:33;3.10;99.90
46217;DHT22;47258;59.424;13.482;2022-11-18T14:33:12;3.10;99.90
46217;DHT22;47258;59.424;13.482;2022-11-18T14:35:42;3.10;99.90
46217;DHT22;47258;59.424;13.482;2022-11-18T14:38:13;3.10;99.90
46217;DHT22;47258;59.424;13.482;2022-11-18T14:40:41;3.00;99.90
46217;DHT22;47258;59.424;13.482;2022-11-18T14:43:09;3.00;99.90
46217;DHT22;47258;59.424;13.482;2022-11-18T14:45:37;3.00;99.90
46217;DHT22;47258;59.424;13.482;2022-11-18T14:48:04;3.00;99.90
46217;DHT22;47258;59.424;13.482;2022-11-18T14:50:32;3.00;99.90
46217;DHT22;47258;59.424;13.482;2022-11-18T14:53:00;3.00;99.90
46217;DHT22;47258;59.424;13.482;2022-11-18T14:55:27;3.00;99.90
46217;DHT22;47258;59.424;13.482;2022-11-18T14:57:54;3.00;99.90
46217;DHT22;47258;59.424;13.482;2022-11-18T15:00:21;3.00;99.90
46217;DHT22;47258;59.424;13.482;2022-11-18T15:02:48;3.00;99.90
46217;DHT22;47258;59.424;13.482;2022-11-18T15:05:15;2.90;99.90
46217;DHT22;47258;59.424;13.482;2022-11-18T15:07:42;2.90;99.90
46217;DHT22;47258;59.424;13.482;2022-11-18T15:10:12;2.90;99.90
46217;DHT22;47258;59.424;13.482;2022-11-18T15:12:40;2.90;99.90
46217;DHT22;47258;59.424;13.482;2022-11-18T15:15:08;2.90;99.90
46217;DHT22;47258;59.424;13.482;2022-11-18T15:17:35;2.80;99.90
46217;DHT22;47258;59.424;13.482;2022-11-18T15:20:02;2.80;99.90
46217;DHT22;47258;59.424;13.482;2022-11-18T15:22:31;2.80;99.90
46217;DHT22;47258;59.424;13.482;2022-11-18T15:24:58;2.80;99.90
46217;DHT22;47258;59.424;13.482;2022-11-18T15:27:26;2.70;99.90
46217;DHT22;47258;59.424;13.482;2022-11-18T15:29:53;2.70;99.90
46217;DHT22;47258;59.424;13.482;2022-11-18T15:32:20;2.70;99.90
46217;DHT22;47258;59.424;13.482;2022-11-18T15:34:47;2.70;99.90
46217;DHT22;47258;59.424;13.482;2022-11-18T15:37:14;2.70;99.90
46217;DHT22;47258;59.424;13.482;2022-11-18T15:39:41;2.70;99.90
46217;DHT22;47258;59.424;13.482;2022-11-18T15:42:08;2.70;99.90
46217;DHT22;47258;59.424;13.482;2022-11-18T15:44:37;2.70;99.90
46217;DHT22;47258;59.424;13.482;2022-11-18T15:47:04;2.70;99.90
46217;DHT22;47258;59.424;13.482;2022-11-18T15:49:31;2.60;99.90
46217;DHT22;47258;59.424;13.482;2022-11-18T15:51:58;2.70;99.90
46217;DHT22;47258;59.424;13.482;2022-11-18T15:54:25;2.70;99.90
46217;DHT22;47258;59.424;13.482;2022-11-18T15:56:52;2.70;99.90
46217;DHT22;47258;59.424;13.482;2022-11-18T15:59:19;2.70;99.90
46217;DHT22;47258;59.424;13.482;2022-11-18T16:01:47;2.70;99.90
46217;DHT22;47258;59.424;13.482;2022-11-18T16:04:16;2.70;99.90
46217;DHT22;47258;59.424;13.482;2022-11-18T16:06:44;2.60;99.90
46217;DHT22;47258;59.424;13.482;2022-11-18T16:09:12;2.60;99.90